createdAt,value
2018-04-16T00:00:32.580Z,15.90
2018-04-16T00:02:59.628Z,15.90
2018-04-16T00:05:26.653Z,15.80
2018-04-16T00:07:54.444Z,15.90
2018-04-16T00:10:21.495Z,15.80
2018-04-16T00:12:48.545Z,15.90
2018-04-16T00:15:15.617Z,15.80
2018-04-16T00:17:42.630Z,15.80
2018-04-16T00:20:09.685Z,15.80
2018-04-16T00:22:36.737Z,15.80
2018-04-16T00:25:03.773Z,15.80
2018-04-16T00:27:30.821Z,15.80
2018-04-16T00:29:57.858Z,15.90
2018-04-16T00:32:30.974Z,15.90
2018-04-16T00:35:04.193Z,15.90
2018-04-16T00:37:37.337Z,15.90
2018-04-16T00:40:10.476Z,15.90
2018-04-16T00:42:44.338Z,15.90
2018-04-16T00:45:17.348Z,15.90
2018-04-16T00:47:50.519Z,15.80
2018-04-16T00:50:23.573Z,15.80
2018-04-16T00:52:56.748Z,15.90
2018-04-16T00:55:29.756Z,15.80
2018-04-16T00:58:02.790Z,15.90
2018-04-16T01:00:36.036Z,15.90
2018-04-16T01:03:09.874Z,15.90
2018-04-16T01:05:42.949Z,15.90
2018-04-16T01:08:16.730Z,15.90
2018-04-16T01:10:49.737Z,15.90
2018-04-16T01:13:23.566Z,15.90
2018-04-16T01:15:56.648Z,15.90
2018-04-16T01:18:29.733Z,15.90
2018-04-16T01:21:02.877Z,15.90
2018-04-16T01:26:33.464Z,15.90
2018-04-16T01:29:07.363Z,15.90
2018-04-16T01:31:40.353Z,15.90
2018-04-16T01:34:13.456Z,15.90
2018-04-16T01:36:46.665Z,15.80
2018-04-16T01:39:19.745Z,15.80
2018-04-16T01:41:52.776Z,15.80
2018-04-16T01:44:26.679Z,15.80
2018-04-16T01:47:00.630Z,15.80
2018-04-16T01:49:33.751Z,15.80
2018-04-16T01:52:06.872Z,15.80
2018-04-16T01:54:40.616Z,15.80
2018-04-16T01:57:13.672Z,15.80
2018-04-16T02:02:47.978Z,15.70
2018-04-16T02:05:21.055Z,15.70
2018-04-16T02:07:54.056Z,15.80
2018-04-16T02:10:27.197Z,15.70
2018-04-16T02:13:00.893Z,15.70
2018-04-16T02:15:33.892Z,15.70
2018-04-16T02:18:07.000Z,15.70
2018-04-16T02:23:37.928Z,15.70
2018-04-16T02:26:10.912Z,15.70
2018-04-16T02:28:44.013Z,15.60
2018-04-16T02:31:17.053Z,15.70
2018-04-16T02:33:50.153Z,15.60
2018-04-16T02:36:24.044Z,15.60
2018-04-16T02:38:57.209Z,15.60
2018-04-16T02:41:30.281Z,15.70
2018-04-16T02:44:03.245Z,15.60
2018-04-16T02:46:37.157Z,15.60
2018-04-16T02:49:10.303Z,15.60
2018-04-16T02:51:43.402Z,15.60
2018-04-16T02:54:16.674Z,15.60
2018-04-16T02:56:49.668Z,15.60
2018-04-16T02:59:22.913Z,15.50
2018-04-16T03:01:56.076Z,15.50
2018-04-16T03:04:30.008Z,15.50
2018-04-16T03:07:03.068Z,15.50
2018-04-16T03:09:36.112Z,15.60
2018-04-16T03:12:09.216Z,15.50
2018-04-16T03:14:42.412Z,15.50
2018-04-16T03:17:15.528Z,15.50
2018-04-16T03:19:48.593Z,15.50
2018-04-16T03:25:22.461Z,15.50
2018-04-16T03:30:53.808Z,15.50
2018-04-16T03:33:26.925Z,15.40
2018-04-16T03:36:00.679Z,15.40
2018-04-16T03:38:33.655Z,15.40
2018-04-16T03:41:06.761Z,15.40
2018-04-16T03:43:39.864Z,15.40
2018-04-16T03:46:13.827Z,15.40
2018-04-16T03:48:46.802Z,15.40
2018-04-16T03:53:49.283Z,15.40
2018-04-16T03:56:17.026Z,15.40
2018-04-16T03:58:44.040Z,15.30
2018-04-16T04:01:11.096Z,15.40
2018-04-16T04:03:38.071Z,15.40
2018-04-16T04:06:05.834Z,15.40
2018-04-16T04:08:33.608Z,15.40
2018-04-16T04:11:01.713Z,15.30
2018-04-16T04:13:28.728Z,15.30
2018-04-16T04:15:56.484Z,15.20
2018-04-16T04:18:24.276Z,15.30
2018-04-16T04:20:52.023Z,15.30
2018-04-16T04:23:38.149Z,15.30
2018-04-16T04:26:23.954Z,15.30
2018-04-16T04:29:09.765Z,15.30
2018-04-16T04:31:36.966Z,15.30
2018-04-16T04:34:04.028Z,15.30
2018-04-16T04:36:31.128Z,15.30
2018-04-16T04:38:58.129Z,15.30
2018-04-16T04:41:25.160Z,15.30
2018-04-16T04:43:52.538Z,15.30
2018-04-16T04:46:19.652Z,15.30
2018-04-16T04:48:46.678Z,15.30
2018-04-16T04:51:13.673Z,15.30
2018-04-16T04:53:40.704Z,15.30
2018-04-16T04:56:07.721Z,15.30
2018-04-16T04:58:34.732Z,15.30
2018-04-16T05:01:01.741Z,15.30
2018-04-16T05:03:29.272Z,15.30
2018-04-16T05:05:56.304Z,15.30
2018-04-16T05:08:23.313Z,15.30
2018-04-16T05:10:50.365Z,15.30
2018-04-16T05:13:17.398Z,15.30
2018-04-16T05:15:44.399Z,15.40
2018-04-16T05:18:12.168Z,15.40
2018-04-16T05:20:40.207Z,15.40
2018-04-16T05:23:07.302Z,15.40
2018-04-16T05:25:34.506Z,15.40
2018-04-16T05:28:01.600Z,15.40
2018-04-16T05:30:29.380Z,15.40
2018-04-16T05:32:56.417Z,15.40
2018-04-16T05:35:23.627Z,15.40
2018-04-16T05:37:51.350Z,15.50
2018-04-16T05:40:18.355Z,15.50
2018-04-16T05:42:46.125Z,15.50
2018-04-16T05:45:13.864Z,15.50
2018-04-16T05:47:40.909Z,15.50
2018-04-16T05:50:07.939Z,15.60
2018-04-16T05:52:34.952Z,15.60
2018-04-16T05:55:02.037Z,15.60
2018-04-16T05:57:29.040Z,15.60
2018-04-16T05:59:56.080Z,15.60
2018-04-16T06:02:23.832Z,15.60
2018-04-16T06:04:50.869Z,15.60
2018-04-16T06:07:18.648Z,15.70
2018-04-16T06:09:45.711Z,15.70
2018-04-16T06:12:12.777Z,15.70
2018-04-16T06:14:39.924Z,15.80
2018-04-16T06:17:07.713Z,15.80
2018-04-16T06:19:34.728Z,15.80
2018-04-16T06:22:01.765Z,15.90
2018-04-16T06:24:29.540Z,16.00
2018-04-16T06:26:56.755Z,16.00
2018-04-16T06:29:23.849Z,16.00
2018-04-16T06:31:51.030Z,16.00
2018-04-16T06:34:18.099Z,16.00
2018-04-16T06:36:45.873Z,16.10
2018-04-16T06:39:12.869Z,16.00
2018-04-16T06:41:39.917Z,16.00
2018-04-16T06:44:06.912Z,16.10
2018-04-16T06:46:34.664Z,16.10
2018-04-16T06:49:01.829Z,16.10
2018-04-16T06:51:29.051Z,16.10
2018-04-16T06:53:56.316Z,16.20
2018-04-16T06:56:24.185Z,16.20
2018-04-16T06:58:52.052Z,16.20
2018-04-16T07:01:19.096Z,16.20
2018-04-16T07:03:46.645Z,16.30
2018-04-16T07:06:13.897Z,16.30
2018-04-16T07:08:41.193Z,16.30
2018-04-16T07:11:08.291Z,16.40
2018-04-16T07:13:35.314Z,16.40
2018-04-16T07:16:02.818Z,16.50
2018-04-16T07:18:30.484Z,16.50
2018-04-16T07:20:58.263Z,16.40
2018-04-16T07:23:25.312Z,16.40
2018-04-16T07:25:53.161Z,16.50
2018-04-16T07:28:20.935Z,16.60
2018-04-16T07:30:48.708Z,16.70
2018-04-16T07:33:16.495Z,16.70
2018-04-16T07:35:43.519Z,16.70
2018-04-16T07:38:11.280Z,16.90
2018-04-16T07:40:38.271Z,16.90
2018-04-16T07:43:05.279Z,16.90
2018-04-16T07:45:32.325Z,17.00
2018-04-16T07:47:59.544Z,17.10
2018-04-16T07:50:27.320Z,17.10
2018-04-16T07:52:54.329Z,17.00
2018-04-16T07:55:21.371Z,17.10
2018-04-16T07:57:48.401Z,17.20
2018-04-16T08:00:15.713Z,17.30
2018-04-16T08:02:42.716Z,17.30
2018-04-16T08:05:09.712Z,17.20
2018-04-16T08:07:37.476Z,17.30
2018-04-16T08:10:05.026Z,17.30
2018-04-16T08:12:32.044Z,17.20
2018-04-16T08:14:59.051Z,17.30
2018-04-16T08:17:26.056Z,17.40
2018-04-16T08:19:53.060Z,17.50
2018-04-16T08:22:20.114Z,17.60
2018-04-16T08:24:47.131Z,17.70
2018-04-16T08:27:14.876Z,17.80
2018-04-16T08:29:41.884Z,17.80
2018-04-16T08:32:09.261Z,17.80
2018-04-16T08:34:37.048Z,18.00
2018-04-16T08:37:04.852Z,18.10
2018-04-16T08:39:31.856Z,18.00
2018-04-16T08:41:59.612Z,18.10
2018-04-16T08:44:26.992Z,18.10
2018-04-16T08:46:54.833Z,18.20
2018-04-16T08:49:21.876Z,18.20
2018-04-16T08:51:48.904Z,18.30
2018-04-16T08:54:15.900Z,18.40
2018-04-16T08:56:42.909Z,18.50
2018-04-16T08:59:10.680Z,18.80
2018-04-16T09:01:38.032Z,18.70
2018-04-16T09:04:05.112Z,18.80
2018-04-16T09:06:32.260Z,18.90
2018-04-16T09:09:00.233Z,19.10
2018-04-16T09:11:28.362Z,19.10
2018-04-16T09:13:55.403Z,19.10
2018-04-16T09:16:22.455Z,19.00
2018-04-16T09:18:49.557Z,19.00
2018-04-16T09:21:17.375Z,19.10
2018-04-16T09:23:44.396Z,19.10
2018-04-16T09:26:11.433Z,19.10
2018-04-16T09:28:38.458Z,19.10
2018-04-16T09:31:05.472Z,19.20
2018-04-16T09:33:32.503Z,19.20
2018-04-16T09:35:59.502Z,19.20
2018-04-16T09:38:26.572Z,19.30
2018-04-16T09:40:53.655Z,19.30
2018-04-16T09:43:20.672Z,19.40
2018-04-16T09:45:48.441Z,19.30
2018-04-16T09:48:15.790Z,19.30
2018-04-16T09:50:42.792Z,19.30
2018-04-16T09:53:10.553Z,19.50
2018-04-16T09:55:38.336Z,19.60
2018-04-16T09:58:06.362Z,19.60
2018-04-16T10:00:39.475Z,19.60
2018-04-16T10:03:06.568Z,19.60
2018-04-16T10:05:33.720Z,19.60
2018-04-16T10:08:00.980Z,19.60
2018-04-16T10:10:28.020Z,19.60
2018-04-16T10:12:55.009Z,19.60
2018-04-16T10:15:22.156Z,19.70
2018-04-16T10:17:49.523Z,19.70
2018-04-16T10:20:16.869Z,19.80
2018-04-16T10:22:43.931Z,19.70
2018-04-16T10:25:18.145Z,19.80
2018-04-16T10:27:45.482Z,19.80
2018-04-16T10:30:12.708Z,19.80
2018-04-16T10:32:40.004Z,19.80
2018-04-16T10:35:07.204Z,19.80
2018-04-16T10:37:34.312Z,19.80
2018-04-16T10:40:01.447Z,19.90
2018-04-16T10:42:28.681Z,19.90
2018-04-16T10:44:55.749Z,19.90
2018-04-16T10:47:24.044Z,19.90
2018-04-16T10:49:51.253Z,19.90
2018-04-16T10:52:19.089Z,19.90
2018-04-16T10:54:46.249Z,19.90
2018-04-16T10:57:14.137Z,20.00
2018-04-16T10:59:42.012Z,20.00
2018-04-16T11:02:09.188Z,20.00
2018-04-16T11:04:36.664Z,20.00
2018-04-16T11:07:03.852Z,20.00
2018-04-16T11:09:31.003Z,20.00
2018-04-16T11:11:58.184Z,20.00
2018-04-16T11:14:26.224Z,19.90
2018-04-16T11:16:53.624Z,19.90
2018-04-16T11:19:20.743Z,20.00
2018-04-16T11:21:47.850Z,20.00
2018-04-16T11:24:14.954Z,20.00
2018-04-16T11:26:42.769Z,20.20
2018-04-16T11:29:10.044Z,20.20
2018-04-16T11:31:37.882Z,20.30
2018-04-16T11:34:04.939Z,20.30
2018-04-16T11:36:32.065Z,20.50
2018-04-16T11:38:59.192Z,20.50
2018-04-16T11:41:27.165Z,20.50
2018-04-16T11:43:54.221Z,20.50
2018-04-16T11:46:21.410Z,20.40
2018-04-16T11:48:48.621Z,20.40
2018-04-16T11:51:15.784Z,20.40
2018-04-16T11:53:43.101Z,20.40
2018-04-16T11:56:10.314Z,20.40
2018-04-16T12:01:27.288Z,20.30
2018-04-16T12:03:54.373Z,20.30
2018-04-16T12:06:21.547Z,20.20
2018-04-16T12:08:48.811Z,20.20
2018-04-16T12:11:16.625Z,20.10
2018-04-16T12:13:43.755Z,20.10
2018-04-16T12:16:18.710Z,20.10
2018-04-16T12:18:46.041Z,20.10
2018-04-16T12:21:13.825Z,20.00
2018-04-16T12:23:40.996Z,20.00
2018-04-16T12:26:08.281Z,19.90
2018-04-16T12:28:36.177Z,19.90
2018-04-16T12:31:03.410Z,19.90
2018-04-16T12:33:31.635Z,19.80
2018-04-16T12:35:58.808Z,19.80
2018-04-16T12:38:26.157Z,19.80
2018-04-16T12:40:53.300Z,19.70
2018-04-16T12:43:20.344Z,19.60
2018-04-16T12:45:47.353Z,19.60
2018-04-16T12:48:15.133Z,19.70
2018-04-16T12:50:42.872Z,19.70
2018-04-16T12:53:09.991Z,19.60
2018-04-16T12:55:37.009Z,19.60
2018-04-16T12:58:04.033Z,19.70
2018-04-16T13:00:31.791Z,19.90
2018-04-16T13:02:59.540Z,20.20
2018-04-16T13:05:26.549Z,20.20
2018-04-16T13:07:53.658Z,20.50
2018-04-16T13:10:21.124Z,20.70
2018-04-16T13:12:49.558Z,20.70
2018-04-16T13:15:16.716Z,20.70
2018-04-16T13:17:43.974Z,20.70
2018-04-16T13:20:11.185Z,20.70
2018-04-16T13:22:38.345Z,20.70
2018-04-16T13:25:05.504Z,20.70
2018-04-16T13:27:32.591Z,20.70
2018-04-16T13:30:00.451Z,20.80
2018-04-16T13:32:27.711Z,20.70
2018-04-16T13:34:54.825Z,20.80
2018-04-16T13:37:21.922Z,21.00
2018-04-16T13:39:49.289Z,21.10
2018-04-16T13:42:16.376Z,21.60
2018-04-16T13:44:44.179Z,22.30
2018-04-16T13:47:11.966Z,22.60
2018-04-16T13:49:38.994Z,22.50
2018-04-16T13:52:05.980Z,22.70
2018-04-16T13:54:32.997Z,22.90
2018-04-16T13:57:00.732Z,23.50
2018-04-16T13:59:27.940Z,23.40
2018-04-16T14:01:54.961Z,23.80
2018-04-16T14:04:22.744Z,24.40
2018-04-16T14:06:50.017Z,24.30
2018-04-16T14:09:17.132Z,24.50
2018-04-16T14:11:44.141Z,24.60
2018-04-16T14:14:11.184Z,24.80
2018-04-16T14:16:38.624Z,24.90
2018-04-16T14:19:05.787Z,25.00
2018-04-16T14:21:32.984Z,25.10
2018-04-16T14:24:00.097Z,25.20
2018-04-16T14:26:27.160Z,25.00
2018-04-16T14:28:54.579Z,24.80
2018-04-16T14:31:21.775Z,24.60
2018-04-16T14:33:49.001Z,24.50
2018-04-16T14:36:16.086Z,24.60
2018-04-16T14:38:43.260Z,24.40
2018-04-16T14:41:10.341Z,24.50
2018-04-16T14:43:37.372Z,24.70
2018-04-16T14:46:04.513Z,24.80
2018-04-16T14:48:31.552Z,24.90
2018-04-16T14:50:58.560Z,25.00
2018-04-16T14:53:25.623Z,25.00
2018-04-16T14:55:52.665Z,25.00
2018-04-16T14:58:19.729Z,24.80
2018-04-16T15:00:46.815Z,24.70
2018-04-16T15:03:13.977Z,24.60
2018-04-16T15:05:41.097Z,24.40
2018-04-16T15:08:08.145Z,24.20
2018-04-16T15:10:35.172Z,23.90
2018-04-16T15:13:02.220Z,23.60
2018-04-16T15:15:29.313Z,23.30
2018-04-16T15:17:56.426Z,23.10
2018-04-16T15:20:23.444Z,22.90
2018-04-16T15:22:50.456Z,22.80
2018-04-16T15:25:17.525Z,22.50
2018-04-16T15:27:45.284Z,22.20
2018-04-16T15:30:12.345Z,22.10
2018-04-16T15:32:40.108Z,21.70
2018-04-16T15:35:07.877Z,21.50
2018-04-16T15:37:35.670Z,21.30
2018-04-16T15:40:02.736Z,21.20
2018-04-16T15:42:30.032Z,21.00
2018-04-16T15:44:57.113Z,20.70
2018-04-16T15:47:24.128Z,20.30
2018-04-16T15:49:51.153Z,20.10
2018-04-16T15:52:18.155Z,19.90
2018-04-16T15:54:45.213Z,19.70
2018-04-16T15:57:12.252Z,19.40
2018-04-16T15:59:39.284Z,19.20
2018-04-16T16:02:06.620Z,18.90
2018-04-16T16:04:33.860Z,18.90
2018-04-16T16:07:01.669Z,18.70
2018-04-16T16:09:28.823Z,18.70
2018-04-16T16:11:56.013Z,18.70
2018-04-16T16:14:23.294Z,18.60
2018-04-16T16:16:50.400Z,18.60
2018-04-16T16:19:17.641Z,18.40
2018-04-16T16:21:44.960Z,18.20
2018-04-16T16:24:12.060Z,18.00
2018-04-16T16:26:39.262Z,17.80
2018-04-16T16:29:06.565Z,17.60
2018-04-16T16:31:33.642Z,17.20
2018-04-16T16:34:01.557Z,16.90
2018-04-16T16:36:28.655Z,16.90
2018-04-16T16:38:56.428Z,16.70
2018-04-16T16:41:23.489Z,16.70
2018-04-16T16:43:50.729Z,16.70
2018-04-16T16:46:17.892Z,16.70
2018-04-16T16:48:44.929Z,16.70
2018-04-16T16:51:12.220Z,16.60
2018-04-16T16:53:39.323Z,16.60
2018-04-16T16:56:06.438Z,16.50
2018-04-16T16:58:33.624Z,16.50
2018-04-16T17:01:00.840Z,16.50
2018-04-16T17:03:28.089Z,16.40
2018-04-16T17:05:55.445Z,16.40
2018-04-16T17:08:23.409Z,16.40
2018-04-16T17:10:51.485Z,16.40
2018-04-16T17:13:19.296Z,16.30
2018-04-16T17:15:46.446Z,16.30
2018-04-16T17:18:13.618Z,16.20
2018-04-16T17:20:41.161Z,16.20
2018-04-16T17:23:08.336Z,16.20
2018-04-16T17:25:35.565Z,16.20
2018-04-16T17:28:02.725Z,16.20
2018-04-16T17:30:29.813Z,16.20
2018-04-16T17:32:56.995Z,16.10
2018-04-16T17:35:25.166Z,16.00
2018-04-16T17:37:52.322Z,16.00
2018-04-16T17:40:19.397Z,15.90
2018-04-16T17:42:47.204Z,15.90
2018-04-16T17:45:15.004Z,15.80
2018-04-16T17:47:42.789Z,15.80
2018-04-16T17:50:09.918Z,15.70
2018-04-16T17:52:37.129Z,15.70
2018-04-16T17:55:04.308Z,15.70
2018-04-16T17:57:31.441Z,15.60
2018-04-16T17:59:58.633Z,15.60
2018-04-16T18:02:25.695Z,15.60
2018-04-16T18:04:52.731Z,15.50
2018-04-16T18:07:20.511Z,15.40
2018-04-16T18:09:47.618Z,15.40
2018-04-16T18:12:14.614Z,15.40
2018-04-16T18:14:41.831Z,15.30
2018-04-16T18:17:09.743Z,15.30
2018-04-16T18:19:36.859Z,15.30
2018-04-16T18:22:03.954Z,15.30
2018-04-16T18:24:31.785Z,15.20
2018-04-16T18:26:58.958Z,15.20
2018-04-16T18:29:26.090Z,15.00
2018-04-16T18:31:54.037Z,15.00
2018-04-16T18:34:21.108Z,15.00
2018-04-16T18:36:48.168Z,15.00
2018-04-16T18:39:16.341Z,14.80
2018-04-16T18:41:43.510Z,14.90
2018-04-16T18:44:11.305Z,14.90
2018-04-16T18:46:39.160Z,14.90
2018-04-16T18:49:06.184Z,14.80
2018-04-16T18:51:33.198Z,14.80
2018-04-16T18:54:00.372Z,14.70
2018-04-16T18:56:27.617Z,14.70
2018-04-16T18:58:54.708Z,14.70
2018-04-16T19:01:21.713Z,14.80
2018-04-16T19:03:48.711Z,14.80
2018-04-16T19:06:15.759Z,14.70
2018-04-16T19:08:42.760Z,14.60
2018-04-16T19:11:10.523Z,14.70
2018-04-16T19:13:37.608Z,14.60
2018-04-16T19:16:04.884Z,14.60
2018-04-16T19:18:32.020Z,14.50
2018-04-16T19:21:05.244Z,14.60
2018-04-16T19:23:32.365Z,14.60
2018-04-16T19:25:59.525Z,14.60
2018-04-16T19:28:26.690Z,14.60
2018-04-16T19:30:53.927Z,14.60
2018-04-16T19:33:27.344Z,14.70
2018-04-16T19:35:55.439Z,14.80
2018-04-16T19:38:24.314Z,14.70
2018-04-16T19:40:51.445Z,14.70
2018-04-16T19:43:18.529Z,14.70
2018-04-16T19:45:46.515Z,14.60
2018-04-16T19:48:13.832Z,14.60
2018-04-16T19:50:40.836Z,14.50
2018-04-16T19:53:07.932Z,14.60
2018-04-16T19:55:41.889Z,14.70
2018-04-16T19:58:15.165Z,14.70
2018-04-16T20:00:42.984Z,14.70
2018-04-16T20:03:16.078Z,14.70
2018-04-16T20:05:44.077Z,14.80
2018-04-16T20:08:11.900Z,14.80
2018-04-16T20:10:39.096Z,14.80
2018-04-16T20:13:06.223Z,14.80
2018-04-16T20:15:34.277Z,14.70
2018-04-16T20:18:01.431Z,14.70
2018-04-16T20:20:29.213Z,14.70
2018-04-16T20:22:56.481Z,14.70
2018-04-16T20:25:23.509Z,14.70
2018-04-16T20:27:50.785Z,14.80
2018-04-16T20:30:17.978Z,14.70
2018-04-16T20:32:45.844Z,14.70
2018-04-16T20:35:12.916Z,14.70
2018-04-16T20:37:40.989Z,14.70
2018-04-16T20:40:08.844Z,14.70
2018-04-16T20:42:35.848Z,14.70
2018-04-16T20:45:02.941Z,14.70
2018-04-16T20:47:29.965Z,14.70
2018-04-16T20:49:57.000Z,14.60
2018-04-16T20:52:24.000Z,14.50
2018-04-16T20:54:51.763Z,14.60
2018-04-16T20:57:18.769Z,14.60
2018-04-16T20:59:45.812Z,14.60
2018-04-16T21:02:12.835Z,14.60
2018-04-16T21:04:39.844Z,14.50
2018-04-16T21:07:06.888Z,14.50
2018-04-16T21:12:06.700Z,14.30
2018-04-16T21:14:33.921Z,14.30
2018-04-16T21:17:00.948Z,14.40
2018-04-16T21:19:28.744Z,14.30
2018-04-16T21:21:55.792Z,14.30
2018-04-16T21:24:22.840Z,14.40
2018-04-16T21:26:49.877Z,14.40
2018-04-16T21:29:16.915Z,14.40
2018-04-16T21:31:43.960Z,14.40
2018-04-16T21:34:10.977Z,14.40
2018-04-16T21:36:38.012Z,14.40
2018-04-16T21:39:06.145Z,14.40
2018-04-16T21:41:33.165Z,14.40
2018-04-16T21:44:00.192Z,14.30
2018-04-16T21:46:27.224Z,14.30
2018-04-16T21:48:54.333Z,14.30
2018-04-16T21:51:22.059Z,14.40
2018-04-16T21:53:49.833Z,14.40
2018-04-16T21:56:16.815Z,14.40
2018-04-16T21:58:43.807Z,14.40
2018-04-16T22:01:10.819Z,14.30
2018-04-16T22:03:37.798Z,14.30
2018-04-16T22:06:05.040Z,14.30
2018-04-16T22:08:32.142Z,14.30
2018-04-16T22:10:59.154Z,14.30
2018-04-16T22:13:26.916Z,14.30
2018-04-16T22:15:54.656Z,14.30
2018-04-16T22:18:21.698Z,14.30
2018-04-16T22:20:48.706Z,14.30
2018-04-16T22:23:15.730Z,14.30
2018-04-16T22:25:42.986Z,14.30
2018-04-16T22:28:10.010Z,14.30
2018-04-16T22:30:37.035Z,14.30
2018-04-16T22:33:04.772Z,14.30
2018-04-16T22:35:31.752Z,14.30
2018-04-16T22:37:58.754Z,14.30
2018-04-16T22:40:26.029Z,14.40
2018-04-16T22:42:53.151Z,14.40
2018-04-16T22:45:20.157Z,14.40
2018-04-16T22:47:47.157Z,14.40
2018-04-16T22:50:14.880Z,14.30
2018-04-16T22:52:42.624Z,14.30
2018-04-16T22:55:09.681Z,14.20
2018-04-16T22:57:36.687Z,14.20
2018-04-16T23:00:03.747Z,14.30
2018-04-16T23:02:30.846Z,14.20
2018-04-16T23:04:57.856Z,14.20
2018-04-16T23:07:24.985Z,14.20
2018-04-16T23:09:51.997Z,14.20
2018-04-16T23:12:19.727Z,14.20
2018-04-16T23:14:47.540Z,14.20
2018-04-16T23:17:14.563Z,14.10
2018-04-16T23:19:42.356Z,14.20
2018-04-16T23:22:09.418Z,14.20
2018-04-16T23:24:36.575Z,14.20
2018-04-16T23:27:03.700Z,14.20
2018-04-16T23:29:31.613Z,14.10
2018-04-16T23:31:59.404Z,14.10
2018-04-16T23:34:27.152Z,14.10
2018-04-16T23:36:54.174Z,14.10
2018-04-16T23:39:21.203Z,14.10
2018-04-16T23:41:48.183Z,14.10
2018-04-16T23:44:15.212Z,14.10
2018-04-16T23:46:42.234Z,14.10
2018-04-16T23:49:09.368Z,14.00
2018-04-16T23:51:37.128Z,14.00
2018-04-16T23:54:04.157Z,13.90
2018-04-16T23:56:31.926Z,13.90
2018-04-16T23:58:58.924Z,13.90
